createdAt,value
2023-05-04T00:00:51.698Z,14.49
2023-05-04T00:03:19.532Z,14.25
2023-05-04T00:05:47.313Z,14.15
2023-05-04T00:08:15.093Z,14.36
2023-05-04T00:10:42.831Z,14.31
2023-05-04T00:13:10.663Z,14.05
2023-05-04T00:15:39.854Z,14.00
2023-05-04T00:18:07.935Z,13.86
2023-05-04T00:20:35.727Z,14.05
2023-05-04T00:23:03.436Z,13.98
2023-05-04T00:25:31.120Z,14.39
2023-05-04T00:27:58.776Z,14.11
2023-05-04T00:30:26.452Z,14.16
2023-05-04T00:32:55.608Z,13.87
2023-05-04T00:35:23.400Z,14.24
2023-05-04T00:37:51.089Z,14.07
2023-05-04T00:40:18.871Z,13.69
2023-05-04T00:42:46.670Z,14.38
2023-05-04T00:45:15.595Z,13.95
2023-05-04T00:47:44.192Z,14.16
2023-05-04T00:53:00.202Z,14.02
2023-05-04T00:55:28.043Z,13.80
2023-05-04T00:57:56.476Z,14.07
2023-05-04T01:00:24.379Z,13.85
2023-05-04T01:02:54.475Z,13.63
2023-05-04T01:05:23.805Z,13.52
2023-05-04T01:07:58.875Z,13.99
2023-05-04T01:10:30.106Z,13.99
2023-05-04T01:13:01.682Z,13.92
2023-05-04T01:15:30.383Z,13.82
2023-05-04T01:17:58.282Z,13.35
2023-05-04T01:20:27.569Z,13.80
2023-05-04T01:22:57.181Z,13.55
2023-05-04T01:25:25.536Z,13.71
2023-05-04T01:27:57.831Z,13.57
2023-05-04T01:30:29.294Z,13.76
2023-05-04T01:33:19.917Z,13.92
2023-05-04T01:35:47.784Z,13.69
2023-05-04T01:38:16.987Z,13.62
2023-05-04T01:40:44.717Z,13.77
2023-05-04T01:43:12.546Z,13.82
2023-05-04T01:45:40.332Z,13.73
2023-05-04T01:48:08.161Z,13.63
2023-05-04T01:50:35.938Z,13.37
2023-05-04T01:53:03.708Z,13.61
2023-05-04T01:55:32.897Z,12.96
2023-05-04T01:58:00.696Z,13.05
2023-05-04T02:00:29.118Z,13.16
2023-05-04T02:02:57.113Z,13.29
2023-05-04T02:05:25.018Z,13.15
2023-05-04T02:07:52.806Z,13.40
2023-05-04T02:10:20.597Z,13.33
2023-05-04T02:12:49.773Z,13.59
2023-05-04T02:15:17.631Z,13.54
2023-05-04T02:17:45.422Z,13.46
2023-05-04T02:22:56.167Z,13.29
2023-05-04T02:25:24.769Z,13.62
2023-05-04T02:27:53.910Z,13.24
2023-05-04T02:30:21.853Z,13.58
2023-05-04T02:33:10.423Z,13.64
2023-05-04T02:35:38.167Z,13.53
2023-05-04T02:38:05.957Z,13.60
2023-05-04T02:40:33.718Z,13.54
2023-05-04T02:43:02.839Z,13.46
2023-05-04T02:45:30.599Z,13.65
2023-05-04T02:47:58.457Z,13.45
2023-05-04T02:50:26.223Z,13.35
2023-05-04T02:52:53.993Z,13.57
2023-05-04T02:55:22.049Z,13.28
2023-05-04T02:57:50.035Z,13.64
2023-05-04T03:00:19.608Z,13.48
2023-05-04T03:02:47.408Z,13.72
2023-05-04T03:05:15.138Z,13.70
2023-05-04T03:07:42.870Z,13.51
2023-05-04T03:10:11.750Z,13.59
2023-05-04T03:12:39.909Z,13.53
2023-05-04T03:15:09.140Z,13.69
2023-05-04T03:17:38.381Z,13.47
2023-05-04T03:20:08.112Z,13.19
2023-05-04T03:22:36.047Z,13.27
2023-05-04T03:25:03.951Z,13.51
2023-05-04T03:27:31.693Z,13.06
2023-05-04T03:29:59.449Z,12.98
2023-05-04T03:32:27.729Z,13.50
2023-05-04T03:34:56.911Z,13.41
2023-05-04T03:37:24.989Z,13.41
2023-05-04T03:39:52.717Z,13.48
2023-05-04T03:42:22.971Z,13.15
2023-05-04T03:44:50.768Z,13.56
2023-05-04T03:47:18.519Z,13.23
2023-05-04T03:49:46.511Z,13.61
2023-05-04T03:52:15.609Z,13.74
2023-05-04T03:54:43.322Z,13.62
2023-05-04T03:57:11.208Z,13.53
2023-05-04T03:59:38.931Z,13.47
2023-05-04T04:02:06.777Z,13.53
2023-05-04T04:04:34.843Z,13.15
2023-05-04T04:07:02.677Z,13.30
2023-05-04T04:09:31.812Z,13.79
2023-05-04T04:11:59.835Z,13.08
2023-05-04T04:14:27.611Z,13.70
2023-05-04T04:16:55.377Z,13.56
2023-05-04T04:19:23.091Z,13.91
2023-05-04T04:21:50.991Z,13.57
2023-05-04T04:24:19.191Z,13.78
2023-05-04T04:26:48.296Z,13.69
2023-05-04T04:29:15.987Z,13.51
2023-05-04T04:31:43.737Z,13.43
2023-05-04T04:34:11.502Z,13.86
2023-05-04T04:36:39.504Z,13.88
2023-05-04T04:39:07.398Z,13.74
2023-05-04T04:41:35.117Z,14.14
2023-05-04T04:44:05.068Z,13.56
2023-05-04T04:46:33.695Z,14.26
2023-05-04T04:49:01.452Z,13.32
2023-05-04T04:51:29.445Z,13.64
2023-05-04T04:53:57.108Z,14.21
2023-05-04T04:56:24.806Z,13.17
2023-05-04T04:58:52.527Z,14.31
2023-05-04T05:01:22.004Z,14.37
2023-05-04T05:03:50.329Z,14.49
2023-05-04T05:06:18.030Z,14.52
2023-05-04T05:08:45.800Z,14.43
2023-05-04T05:11:13.559Z,14.37
2023-05-04T05:13:41.550Z,14.13
2023-05-04T05:16:09.408Z,14.86
2023-05-04T05:18:38.561Z,14.19
2023-05-04T05:21:07.491Z,13.96
2023-05-04T05:23:35.673Z,14.35
2023-05-04T05:26:03.670Z,14.80
2023-05-04T05:28:31.549Z,14.66
2023-05-04T05:30:59.342Z,15.00
2023-05-04T05:33:27.057Z,15.38
2023-05-04T05:35:56.351Z,15.50
2023-05-04T05:38:24.297Z,15.39
2023-05-04T05:40:52.297Z,15.42
2023-05-04T05:43:23.025Z,15.39
2023-05-04T05:45:52.808Z,15.66
2023-05-04T05:48:21.932Z,15.86
2023-05-04T05:50:49.958Z,15.47
2023-05-04T05:53:19.313Z,16.04
2023-05-04T05:55:47.708Z,15.62
2023-05-04T05:58:17.128Z,15.09
2023-05-04T06:00:44.997Z,16.16
2023-05-04T06:03:13.260Z,16.05
2023-05-04T06:05:41.860Z,16.00
2023-05-04T06:08:09.816Z,16.72
2023-05-04T06:10:39.889Z,17.44
2023-05-04T06:13:07.872Z,16.60
2023-05-04T06:15:36.730Z,16.73
2023-05-04T06:18:05.100Z,15.91
2023-05-04T06:20:33.348Z,16.70
2023-05-04T06:23:01.993Z,16.50
2023-05-04T06:25:50.215Z,17.30
2023-05-04T06:28:19.585Z,18.60
2023-05-04T06:30:48.496Z,17.83
2023-05-04T06:33:16.561Z,17.95
2023-05-04T06:35:45.695Z,18.34
2023-05-04T06:38:14.771Z,19.19
2023-05-04T06:40:43.216Z,19.25
2023-05-04T06:43:12.857Z,19.94
2023-05-04T06:45:41.381Z,20.12
2023-05-04T06:48:09.545Z,18.83
2023-05-04T06:50:37.525Z,19.06
2023-05-04T06:53:08.183Z,19.37
2023-05-04T06:55:36.222Z,18.47
2023-05-04T06:58:04.134Z,18.93
2023-05-04T07:00:33.616Z,19.43
2023-05-04T07:03:01.456Z,19.20
2023-05-04T07:05:29.640Z,20.06
2023-05-04T07:07:58.882Z,18.39
2023-05-04T07:10:26.882Z,20.18
2023-05-04T07:12:55.067Z,20.75
2023-05-04T07:15:26.630Z,20.13
2023-05-04T07:17:55.876Z,19.48
2023-05-04T07:20:26.071Z,19.60
2023-05-04T07:22:57.308Z,19.59
2023-05-04T07:25:33.933Z,20.29
2023-05-04T07:28:04.196Z,19.88
2023-05-04T07:30:41.398Z,20.19
2023-05-04T07:33:11.496Z,19.47
2023-05-04T07:38:37.509Z,20.28
2023-05-04T07:41:05.271Z,20.27
2023-05-04T07:43:33.373Z,20.08
2023-05-04T07:46:01.570Z,20.54
2023-05-04T07:48:30.691Z,20.08
2023-05-04T07:50:58.353Z,20.11
2023-05-04T07:53:27.072Z,21.13
2023-05-04T07:55:57.290Z,21.69
2023-05-04T07:58:28.556Z,21.54
2023-05-04T08:00:56.187Z,21.64
2023-05-04T08:03:24.033Z,22.02
2023-05-04T08:05:53.695Z,21.43
2023-05-04T08:08:21.924Z,21.59
2023-05-04T08:10:49.567Z,22.10
2023-05-04T08:13:17.266Z,21.50
2023-05-04T08:15:44.879Z,21.86
2023-05-04T08:18:12.555Z,21.64
2023-05-04T08:20:40.237Z,21.62
2023-05-04T08:23:09.309Z,22.67
2023-05-04T08:25:37.223Z,22.33
2023-05-04T08:28:05.102Z,23.52
2023-05-04T08:30:32.737Z,21.99
2023-05-04T08:33:00.469Z,23.05
2023-05-04T08:35:28.819Z,23.84
2023-05-04T08:37:56.757Z,23.31
2023-05-04T08:40:25.816Z,23.38
2023-05-04T08:42:53.725Z,23.31
2023-05-04T08:45:21.437Z,23.16
2023-05-04T08:47:49.408Z,23.70
2023-05-04T08:50:17.171Z,23.61
2023-05-04T08:52:47.483Z,23.44
2023-05-04T08:55:16.996Z,23.87
2023-05-04T08:57:46.285Z,24.12
2023-05-04T09:00:16.868Z,24.43
2023-05-04T09:02:45.642Z,24.01
2023-05-04T09:05:13.596Z,24.63
2023-05-04T09:07:41.237Z,24.13
2023-05-04T09:10:10.082Z,24.14
2023-05-04T09:12:38.807Z,24.67
2023-05-04T09:15:17.783Z,24.43
2023-05-04T09:20:25.741Z,24.62
2023-05-04T09:23:04.139Z,24.80
2023-05-04T09:25:32.203Z,25.42
2023-05-04T09:28:00.080Z,24.69
2023-05-04T09:30:29.233Z,25.69
2023-05-04T09:33:00.169Z,25.35
2023-05-04T09:35:33.192Z,24.94
2023-05-04T09:38:02.019Z,24.82
2023-05-04T09:40:33.780Z,25.05
2023-05-04T09:43:01.914Z,25.69
2023-05-04T09:45:41.776Z,25.37
2023-05-04T09:48:20.046Z,25.25
2023-05-04T09:50:52.696Z,25.83
2023-05-04T09:53:23.097Z,26.92
2023-05-04T09:55:56.897Z,26.31
2023-05-04T09:58:40.259Z,26.82
2023-05-04T10:01:09.462Z,26.19
2023-05-04T10:03:38.014Z,26.41
2023-05-04T10:06:08.890Z,26.27
2023-05-04T10:08:37.168Z,26.09
2023-05-04T10:11:05.245Z,26.36
2023-05-04T10:13:32.941Z,25.87
2023-05-04T10:16:14.184Z,26.32
2023-05-04T10:19:08.865Z,26.65
2023-05-04T10:21:47.339Z,25.72
2023-05-04T10:24:26.744Z,26.92
2023-05-04T10:27:00.999Z,25.63
2023-05-04T10:29:30.925Z,27.17
2023-05-04T10:32:00.641Z,26.77
2023-05-04T10:34:30.067Z,26.36
2023-05-04T10:36:58.921Z,27.28
2023-05-04T10:39:28.150Z,27.22
2023-05-04T10:42:00.334Z,27.26
2023-05-04T10:44:29.170Z,28.31
2023-05-04T10:47:05.844Z,27.05
2023-05-04T10:49:34.209Z,28.14
2023-05-04T10:52:26.510Z,28.09
2023-05-04T10:55:00.312Z,27.89
2023-05-04T10:57:29.301Z,27.18
2023-05-04T10:59:58.423Z,26.32
2023-05-04T11:02:30.447Z,28.51
2023-05-04T11:05:01.144Z,29.01
2023-05-04T11:07:35.258Z,28.02
2023-05-04T11:10:03.806Z,28.77
2023-05-04T11:12:32.609Z,29.11
2023-05-04T11:15:08.475Z,27.70
2023-05-04T11:17:46.101Z,28.53
2023-05-04T11:20:21.002Z,28.90
2023-05-04T11:22:49.016Z,28.73
2023-05-04T11:25:17.432Z,29.24
2023-05-04T11:30:32.714Z,28.50
2023-05-04T11:33:02.342Z,28.62
2023-05-04T11:35:30.124Z,28.66
2023-05-04T11:41:32.989Z,29.10
2023-05-04T11:44:01.828Z,26.30
2023-05-04T11:46:29.929Z,28.31
2023-05-04T11:49:00.093Z,28.64
2023-05-04T11:51:29.161Z,29.39
2023-05-04T11:53:57.048Z,28.01
2023-05-04T11:56:24.702Z,28.45
2023-05-04T11:58:52.538Z,29.86
2023-05-04T12:01:21.171Z,29.36
2023-05-04T12:03:53.580Z,29.51
2023-05-04T12:06:35.338Z,29.42
2023-05-04T12:09:03.749Z,29.63
2023-05-04T12:11:31.410Z,29.30
2023-05-04T12:14:03.708Z,29.58
2023-05-04T12:16:31.788Z,30.49
2023-05-04T12:19:04.626Z,29.13
2023-05-04T12:21:32.823Z,28.34
2023-05-04T12:24:02.321Z,29.29
2023-05-04T12:26:32.474Z,30.14
2023-05-04T12:29:00.143Z,29.76
2023-05-04T12:31:28.827Z,30.55
2023-05-04T12:33:56.589Z,29.84
2023-05-04T12:36:24.381Z,30.06
2023-05-04T12:38:52.213Z,31.60
2023-05-04T12:41:21.548Z,32.28
2023-05-04T12:43:49.835Z,31.80
2023-05-04T12:46:21.353Z,32.61
2023-05-04T12:48:49.331Z,31.24
2023-05-04T12:51:17.024Z,32.74
2023-05-04T12:54:02.316Z,30.93
2023-05-04T12:56:32.207Z,32.16
2023-05-04T12:58:59.845Z,32.82
2023-05-04T13:01:28.263Z,32.70
2023-05-04T13:03:56.018Z,32.57
2023-05-04T13:06:23.828Z,34.33
2023-05-04T13:08:51.726Z,34.43
2023-05-04T13:11:20.208Z,34.11
2023-05-04T13:13:49.300Z,35.24
2023-05-04T13:16:17.424Z,31.74
2023-05-04T13:18:45.164Z,34.83
2023-05-04T13:21:12.806Z,34.61
2023-05-04T13:23:40.485Z,34.49
2023-05-04T13:26:08.161Z,35.33
2023-05-04T13:28:37.852Z,36.05
2023-05-04T13:31:08.835Z,35.11
2023-05-04T13:33:38.700Z,34.47
2023-05-04T13:36:07.473Z,34.49
2023-05-04T13:38:35.155Z,35.98
2023-05-04T13:41:03.065Z,35.30
2023-05-04T13:43:30.941Z,34.72
2023-05-04T13:46:26.138Z,34.59
2023-05-04T13:48:55.162Z,34.63
2023-05-04T13:51:24.576Z,35.45
2023-05-04T13:53:52.242Z,34.23
2023-05-04T13:56:19.908Z,35.51
2023-05-04T13:58:47.530Z,36.29
2023-05-04T14:01:16.015Z,34.47
2023-05-04T14:03:46.730Z,36.02
2023-05-04T14:06:14.678Z,36.11
2023-05-04T14:08:42.541Z,35.79
2023-05-04T14:11:10.445Z,36.84
2023-05-04T14:13:38.092Z,37.96
2023-05-04T14:16:06.792Z,35.36
2023-05-04T14:18:34.458Z,36.21
2023-05-04T14:21:03.530Z,34.00
2023-05-04T14:23:31.306Z,33.66
2023-05-04T14:25:59.010Z,34.85
2023-05-04T14:32:16.795Z,33.22
2023-05-04T14:34:44.783Z,36.48
2023-05-04T14:37:12.467Z,35.01
2023-05-04T14:39:40.731Z,34.26
2023-05-04T14:42:08.801Z,35.54
2023-05-04T14:44:36.981Z,36.36
2023-05-04T14:47:07.415Z,36.18
2023-05-04T14:49:42.840Z,36.31
2023-05-04T14:52:11.398Z,35.72
2023-05-04T14:54:39.058Z,35.54
2023-05-04T14:57:09.039Z,37.18
2023-05-04T14:59:37.777Z,36.21
2023-05-04T15:02:08.279Z,35.79
2023-05-04T15:04:37.421Z,34.79
2023-05-04T15:07:05.524Z,32.69
2023-05-04T15:09:33.304Z,34.71
2023-05-04T15:12:01.013Z,35.45
2023-05-04T15:14:28.713Z,36.78
2023-05-04T15:16:56.396Z,33.44
2023-05-04T15:19:24.143Z,34.78
2023-05-04T15:21:53.441Z,34.40
2023-05-04T15:24:21.374Z,35.05
2023-05-04T15:26:49.077Z,36.16
2023-05-04T15:29:16.778Z,36.22
2023-05-04T15:31:44.514Z,38.11
2023-05-04T15:34:12.277Z,36.72
2023-05-04T15:36:40.248Z,37.60
2023-05-04T15:39:10.185Z,37.66
2023-05-04T15:41:38.239Z,36.31
2023-05-04T15:44:06.944Z,38.34
2023-05-04T15:46:34.787Z,39.78
2023-05-04T15:49:02.535Z,38.27
2023-05-04T15:51:31.963Z,36.83
2023-05-04T15:54:00.187Z,35.78
2023-05-04T15:56:29.360Z,35.27
2023-05-04T15:58:57.077Z,35.81
2023-05-04T16:01:24.970Z,37.47
2023-05-04T16:04:01.075Z,35.47
2023-05-04T16:06:29.016Z,34.66
2023-05-04T16:08:56.778Z,35.32
2023-05-04T16:11:24.485Z,35.62
2023-05-04T16:13:53.577Z,35.11
2023-05-04T16:16:21.369Z,34.75
2023-05-04T16:18:49.081Z,34.60
2023-05-04T16:21:16.894Z,36.08
2023-05-04T16:23:44.579Z,35.25
2023-05-04T16:26:12.392Z,34.15
2023-05-04T16:28:41.542Z,35.14
2023-05-04T16:31:12.110Z,35.68
2023-05-04T16:33:41.364Z,34.69
2023-05-04T16:36:10.165Z,35.63
2023-05-04T16:38:37.894Z,33.54
2023-05-04T16:41:05.772Z,32.21
2023-05-04T16:43:33.585Z,31.99
2023-05-04T16:46:01.366Z,31.20
2023-05-04T16:48:30.708Z,30.00
2023-05-04T16:50:58.400Z,30.39
2023-05-04T16:53:26.109Z,29.08
2023-05-04T16:55:53.783Z,29.78
2023-05-04T16:58:21.446Z,30.38
2023-05-04T17:00:49.426Z,29.21
2023-05-04T17:03:17.275Z,29.01
2023-05-04T17:08:44.053Z,28.54
2023-05-04T17:11:11.813Z,28.06
2023-05-04T17:13:39.502Z,28.83
2023-05-04T17:16:07.983Z,28.83
2023-05-04T17:18:35.715Z,27.27
2023-05-04T17:24:35.982Z,28.04
2023-05-04T17:27:03.801Z,27.92
2023-05-04T17:29:32.479Z,28.70
2023-05-04T17:32:00.238Z,28.02
2023-05-04T17:34:27.990Z,27.85
2023-05-04T17:36:55.737Z,27.59
2023-05-04T17:39:23.429Z,27.16
2023-05-04T17:41:52.590Z,27.30
2023-05-04T17:44:20.312Z,26.81
2023-05-04T17:46:48.484Z,26.88
2023-05-04T17:49:19.095Z,26.93
2023-05-04T17:51:49.095Z,26.24
2023-05-04T17:54:17.001Z,26.60
2023-05-04T17:56:44.727Z,26.54
2023-05-04T17:59:13.847Z,26.42
2023-05-04T18:01:41.598Z,26.29
2023-05-04T18:04:09.374Z,26.36
2023-05-04T18:06:37.314Z,25.81
2023-05-04T18:09:05.421Z,25.16
2023-05-04T18:11:33.187Z,25.14
2023-05-04T18:14:00.978Z,25.18
2023-05-04T18:16:32.951Z,25.21
2023-05-04T18:19:01.375Z,25.42
2023-05-04T18:21:29.206Z,24.70
2023-05-04T18:23:57.085Z,24.23
2023-05-04T18:26:24.752Z,24.05
2023-05-04T18:28:52.521Z,24.01
2023-05-04T18:31:20.305Z,24.52
2023-05-04T18:33:50.183Z,24.40
2023-05-04T18:36:18.914Z,24.10
2023-05-04T18:38:49.710Z,23.61
2023-05-04T18:44:03.153Z,23.81
2023-05-04T18:46:30.858Z,23.45
2023-05-04T18:48:59.953Z,23.52
2023-05-04T18:51:28.087Z,23.42
2023-05-04T18:53:55.742Z,23.04
2023-05-04T18:56:23.472Z,23.15
2023-05-04T18:58:51.162Z,23.36
2023-05-04T19:01:19.101Z,23.31
2023-05-04T19:03:47.151Z,23.13
2023-05-04T19:06:16.304Z,23.15
2023-05-04T19:08:44.231Z,23.11
2023-05-04T19:11:12.068Z,22.33
2023-05-04T19:13:39.916Z,22.44
2023-05-04T19:16:12.690Z,22.42
2023-05-04T19:18:40.666Z,22.62
2023-05-04T19:21:08.373Z,21.78
2023-05-04T19:23:37.487Z,21.77
2023-05-04T19:26:05.956Z,21.48
2023-05-04T19:28:42.831Z,21.46
2023-05-04T19:31:10.542Z,21.97
2023-05-04T19:33:48.071Z,21.84
2023-05-04T19:36:16.996Z,22.34
2023-05-04T19:38:46.322Z,21.43
2023-05-04T19:41:14.784Z,21.40
2023-05-04T19:43:42.694Z,21.73
2023-05-04T19:46:10.471Z,21.56
2023-05-04T19:48:39.367Z,21.02
2023-05-04T19:51:07.069Z,21.57
2023-05-04T19:53:34.833Z,21.15
2023-05-04T19:56:03.989Z,21.29
2023-05-04T19:58:32.012Z,21.28
2023-05-04T20:00:59.748Z,21.19
2023-05-04T20:03:27.499Z,21.32
2023-05-04T20:05:55.626Z,21.44
2023-05-04T20:08:23.345Z,21.05
2023-05-04T20:10:51.071Z,21.67
2023-05-04T20:13:20.186Z,20.89
2023-05-04T20:15:47.937Z,21.56
2023-05-04T20:18:21.513Z,20.81
2023-05-04T20:20:49.337Z,20.39
2023-05-04T20:23:17.852Z,21.01
2023-05-04T20:25:46.192Z,20.94
2023-05-04T20:28:14.196Z,20.77
2023-05-04T20:30:43.395Z,20.40
2023-05-04T20:33:11.363Z,20.30
2023-05-04T20:35:41.504Z,19.92
2023-05-04T20:38:09.555Z,20.23
2023-05-04T20:40:37.626Z,20.07
2023-05-04T20:43:05.310Z,20.49
2023-05-04T20:45:33.430Z,19.56
2023-05-04T20:48:03.922Z,20.34
2023-05-04T20:50:31.856Z,19.89
2023-05-04T20:53:01.256Z,19.74
2023-05-04T20:55:28.970Z,19.60
2023-05-04T20:57:56.679Z,19.97
2023-05-04T21:00:25.385Z,19.59
2023-05-04T21:02:53.562Z,19.64
2023-05-04T21:05:22.752Z,19.90
2023-05-04T21:07:52.032Z,19.00
2023-05-04T21:10:20.550Z,19.58
2023-05-04T21:12:48.253Z,19.95
2023-05-04T21:15:16.537Z,19.32
2023-05-04T21:17:44.313Z,19.27
2023-05-04T21:20:12.302Z,19.45
2023-05-04T21:22:41.429Z,19.27
2023-05-04T21:25:09.604Z,18.85
2023-05-04T21:27:37.305Z,19.58
2023-05-04T21:30:05.597Z,19.64
2023-05-04T21:32:33.400Z,19.64
2023-05-04T21:35:01.740Z,19.07
2023-05-04T21:37:29.407Z,19.35
2023-05-04T21:39:58.497Z,19.11
2023-05-04T21:42:26.580Z,19.45
2023-05-04T21:44:55.127Z,19.00
2023-05-04T21:47:22.929Z,19.30
2023-05-04T21:49:51.840Z,19.29
2023-05-04T21:52:19.596Z,19.08
2023-05-04T21:54:47.252Z,18.72
2023-05-04T21:57:16.354Z,18.65
2023-05-04T21:59:44.048Z,19.13
2023-05-04T22:02:11.850Z,18.28
2023-05-04T22:04:43.282Z,18.95
2023-05-04T22:07:11.164Z,18.18
2023-05-04T22:09:41.490Z,18.18
2023-05-04T22:12:09.264Z,18.25
2023-05-04T22:14:39.456Z,18.48
2023-05-04T22:17:09.003Z,18.56
2023-05-04T22:19:36.814Z,18.10
2023-05-04T22:22:04.760Z,18.56
2023-05-04T22:24:32.699Z,18.34
2023-05-04T22:27:00.354Z,17.97
2023-05-04T22:29:28.085Z,18.44
2023-05-04T22:31:57.145Z,17.72
2023-05-04T22:34:24.928Z,17.85
2023-05-04T22:36:52.571Z,18.15
2023-05-04T22:39:20.654Z,18.38
2023-05-04T22:41:48.283Z,18.18
2023-05-04T22:44:15.932Z,17.80
2023-05-04T22:46:43.628Z,17.94
2023-05-04T22:49:12.791Z,18.06
2023-05-04T22:51:40.437Z,18.50
2023-05-04T22:54:08.115Z,18.57
2023-05-04T22:56:36.299Z,18.57
2023-05-04T22:59:04.750Z,18.14
2023-05-04T23:01:32.482Z,18.69
2023-05-04T23:04:00.343Z,19.10
2023-05-04T23:06:29.517Z,19.22
2023-05-04T23:08:57.146Z,18.69
2023-05-04T23:11:24.810Z,19.07
2023-05-04T23:13:52.522Z,20.02
2023-05-04T23:16:20.351Z,19.59
2023-05-04T23:18:48.859Z,19.29
2023-05-04T23:21:16.512Z,18.97
2023-05-04T23:23:46.023Z,18.88
2023-05-04T23:26:13.656Z,19.17
2023-05-04T23:28:41.520Z,19.59
2023-05-04T23:31:09.238Z,19.94
2023-05-04T23:33:36.971Z,19.60
2023-05-04T23:36:04.808Z,20.12
2023-05-04T23:38:32.488Z,19.37
2023-05-04T23:41:03.334Z,19.82
2023-05-04T23:43:31.824Z,19.74
2023-05-04T23:46:00.833Z,19.56
2023-05-04T23:48:28.770Z,19.75
2023-05-04T23:50:58.868Z,19.90
2023-05-04T23:53:26.902Z,19.76
2023-05-04T23:56:00.133Z,19.14
2023-05-04T23:58:45.534Z,19.96
